createdAt,value
2022-12-29T00:04:15.277Z,98491.84
2022-12-29T00:14:36.769Z,98490.69
2022-12-29T00:25:01.943Z,98473.24
2022-12-29T00:35:13.009Z,98470.14
2022-12-29T00:45:18.880Z,98463.08
2022-12-29T00:55:26.120Z,98450.48
2022-12-29T01:05:33.106Z,98444.88
2022-12-29T01:15:40.383Z,98437.27
2022-12-29T01:25:47.429Z,98421.78
2022-12-29T01:35:54.648Z,98421.20
2022-12-29T01:46:01.907Z,98434.27
2022-12-29T01:56:13.139Z,98423.34
2022-12-29T02:06:20.732Z,98418.75
2022-12-29T02:16:33.298Z,98397.66
2022-12-29T02:26:57.003Z,98398.42
2022-12-29T02:37:02.599Z,98390.14
2022-12-29T02:47:13.625Z,98365.83
2022-12-29T02:57:32.700Z,98353.48
2022-12-29T03:07:40.532Z,98352.74
2022-12-29T03:17:47.987Z,98339.00
2022-12-29T03:27:58.190Z,98336.71
2022-12-29T03:38:12.429Z,98345.98
2022-12-29T03:48:19.483Z,98350.86
2022-12-29T03:58:27.483Z,98336.38
2022-12-29T04:08:34.488Z,98337.33
2022-12-29T04:18:41.568Z,98316.83
2022-12-29T04:28:48.614Z,98292.71
2022-12-29T04:38:55.847Z,98298.77
2022-12-29T04:49:09.108Z,98295.39
2022-12-29T04:59:16.554Z,98296.27
2022-12-29T05:09:25.112Z,98295.94
2022-12-29T05:19:32.981Z,98288.36
2022-12-29T05:29:40.727Z,98274.94
2022-12-29T05:39:47.834Z,98260.31
2022-12-29T05:49:54.920Z,98259.98
2022-12-29T06:00:02.249Z,98269.46
2022-12-29T06:10:09.888Z,98278.68
2022-12-29T06:20:17.357Z,98274.49
2022-12-29T06:30:24.643Z,98262.84
2022-12-29T06:40:32.066Z,98249.21
2022-12-29T06:50:38.394Z,98231.24
2022-12-29T07:00:45.681Z,98230.67
2022-12-29T07:10:53.188Z,98226.34
2022-12-29T07:21:00.462Z,98241.13
2022-12-29T07:31:08.450Z,98252.02
2022-12-29T07:41:15.694Z,98265.73
2022-12-29T07:51:22.815Z,98258.41
2022-12-29T08:01:29.518Z,98226.04
2022-12-29T08:11:37.964Z,98211.71
2022-12-29T08:21:45.172Z,98229.98
2022-12-29T08:31:52.333Z,98230.46
2022-12-29T08:41:59.846Z,98227.80
2022-12-29T08:52:07.860Z,98244.45
2022-12-29T09:02:18.732Z,98248.35
2022-12-29T09:12:34.463Z,98237.64
2022-12-29T09:22:42.879Z,98237.63
2022-12-29T09:32:54.946Z,98231.31
2022-12-29T09:43:18.517Z,98229.36
2022-12-29T09:53:27.645Z,98235.10
2022-12-29T10:03:36.315Z,98233.92
2022-12-29T10:13:43.442Z,98220.29
2022-12-29T10:23:54.490Z,98198.77
2022-12-29T10:34:08.079Z,98196.77
2022-12-29T10:44:16.917Z,98191.80
2022-12-29T10:54:25.037Z,98192.23
2022-12-29T11:04:48.969Z,98196.82
2022-12-29T11:15:20.923Z,98180.85
2022-12-29T11:25:28.954Z,98183.30
2022-12-29T11:35:34.672Z,98174.91
2022-12-29T11:45:49.227Z,98170.08
2022-12-29T11:55:55.221Z,98174.41
2022-12-29T12:06:00.809Z,98168.45
2022-12-29T12:16:11.050Z,98161.45
2022-12-29T12:26:21.567Z,98159.16
2022-12-29T12:36:56.190Z,98165.43
2022-12-29T12:47:06.655Z,98163.88
2022-12-29T12:57:13.819Z,98163.66
2022-12-29T13:07:20.842Z,98171.98
2022-12-29T13:17:26.840Z,98175.44
2022-12-29T13:27:45.397Z,98170.67
2022-12-29T13:37:56.688Z,98168.38
2022-12-29T13:48:02.182Z,98163.77
2022-12-29T13:58:14.235Z,98162.50
2022-12-29T14:08:21.933Z,98159.52
2022-12-29T14:18:31.281Z,98161.65
2022-12-29T14:28:39.209Z,98164.56
2022-12-29T14:38:49.050Z,98168.65
2022-12-29T14:48:58.020Z,98164.14
2022-12-29T14:59:05.955Z,98167.27
2022-12-29T15:09:15.680Z,98176.83
2022-12-29T15:19:25.379Z,98175.97
2022-12-29T15:29:33.668Z,98186.91
2022-12-29T15:39:39.768Z,98181.75
2022-12-29T15:49:46.211Z,98187.13
2022-12-29T15:59:55.186Z,98185.93
2022-12-29T16:10:04.072Z,98189.64
2022-12-29T16:20:21.434Z,98188.02
2022-12-29T16:30:34.184Z,98184.30
2022-12-29T16:40:42.824Z,98185.63
2022-12-29T16:50:51.370Z,98189.47
2022-12-29T17:01:00.350Z,98199.98
2022-12-29T17:11:24.775Z,98209.66
2022-12-29T17:21:32.191Z,98210.70
2022-12-29T17:31:39.659Z,98212.66
2022-12-29T17:41:48.833Z,98222.45
2022-12-29T17:51:56.284Z,98223.59
2022-12-29T18:02:03.909Z,98227.16
2022-12-29T18:12:26.923Z,98231.37
2022-12-29T18:22:34.735Z,98232.33
2022-12-29T18:32:56.075Z,98230.52
2022-12-29T18:43:04.096Z,98230.26
2022-12-29T18:53:12.580Z,98233.38
2022-12-29T19:03:21.461Z,98228.12
2022-12-29T19:13:34.906Z,98225.17
2022-12-29T19:23:41.759Z,98227.39
2022-12-29T19:43:55.835Z,98232.05
2022-12-29T19:54:03.204Z,98232.92
2022-12-29T20:04:09.523Z,98238.10
2022-12-29T20:14:17.248Z,98239.31
2022-12-29T20:24:24.803Z,98241.29
2022-12-29T20:34:32.251Z,98239.64
2022-12-29T20:44:39.426Z,98231.91
2022-12-29T20:54:46.518Z,98236.73
2022-12-29T21:15:21.232Z,98244.92
2022-12-29T21:25:29.443Z,98244.34
2022-12-29T21:35:38.589Z,98250.59
2022-12-29T21:45:49.493Z,98271.83
2022-12-29T21:55:56.700Z,98283.71
2022-12-29T22:06:21.540Z,98287.91
2022-12-29T22:16:29.237Z,98288.92
2022-12-29T22:26:36.100Z,98286.66
2022-12-29T22:36:43.353Z,98286.31
2022-12-29T22:46:50.484Z,98282.20
2022-12-29T22:56:56.437Z,98287.03
2022-12-29T23:07:03.873Z,98277.73
2022-12-29T23:17:11.543Z,98276.20
2022-12-29T23:27:18.815Z,98278.17
2022-12-29T23:37:26.209Z,98288.46
2022-12-29T23:47:33.558Z,98275.41
2022-12-29T23:57:40.634Z,98266.22
